Time;durP1;ratioP1;P1;durP2;ratioP2;P2;SDS_P1;SDS_P2;PMS_P1;PMS_P2;Temp;Humidity;BMP_temperature;BMP_pressure;BME280_temperature;BME280_humidity;BME280_pressure;Samples;Min_cycle;Max_cycle;Signal;HPM_P1;HPM_P2
2022/08/10 00:03:00;;;;;;;5.20;3.55;;;;;;;;;;5015534;28;20057;-72
2022/08/10 00:05:26;;;;;;;8.95;3.45;;;;;;;;;;5015504;28;20026;-72
2022/08/10 00:07:53;;;;;;;5.18;3.33;;;;;;;;;;5044308;28;20041;-72
2022/08/10 00:10:20;;;;;;;8.18;3.55;;;;;;;;;;5076606;28;20020;-72
2022/08/10 00:12:46;;;;;;;6.30;3.58;;;;;;;;;;5076807;28;20074;-72
2022/08/10 00:15:13;;;;;;;7.38;3.75;;;;;;;;;;5075232;28;20024;-72
2022/08/10 00:17:39;;;;;;;7.18;3.70;;;;;;;;;;5076387;28;20148;-72
2022/08/10 00:20:06;;;;;;;10.95;3.75;;;;;;;;;;5076457;28;20021;-72
2022/08/10 00:22:32;;;;;;;10.13;3.75;;;;;;;;;;5076681;28;20029;-71
2022/08/10 00:24:58;;;;;;;11.75;4.03;;;;;;;;;;5076360;28;20100;-71
2022/08/10 00:27:24;;;;;;;9.27;4.00;;;;;;;;;;5076334;28;20029;-71
2022/08/10 00:29:50;;;;;;;8.18;4.15;;;;;;;;;;5076257;28;20077;-72
2022/08/10 00:32:16;;;;;;;6.82;3.42;;;;;;;;;;5076501;28;20119;-72
2022/08/10 00:34:44;;;;;;;6.38;3.78;;;;;;;;;;5076226;28;20028;-72
2022/08/10 00:37:10;;;;;;;9.75;3.83;;;;;;;;;;5076401;28;20020;-72
2022/08/10 00:39:36;;;;;;;8.98;3.63;;;;;;;;;;5076078;28;20143;-72
2022/08/10 00:42:04;;;;;;;6.32;3.70;;;;;;;;;;5076081;28;20445;-72
2022/08/10 00:44:30;;;;;;;9.18;3.70;;;;;;;;;;5075997;28;20082;-72
2022/08/10 00:46:58;;;;;;;6.22;3.50;;;;;;;;;;5074742;28;20028;-72
2022/08/10 00:49:24;;;;;;;7.55;3.53;;;;;;;;;;5075947;28;20020;-72
2022/08/10 00:51:50;;;;;;;7.05;4.10;;;;;;;;;;5075883;28;20056;-72
2022/08/10 00:54:16;;;;;;;9.15;3.72;;;;;;;;;;5066373;28;20513;-72
2022/08/10 00:56:42;;;;;;;6.22;3.53;;;;;;;;;;5037830;28;20047;-71
2022/08/10 00:59:08;;;;;;;6.93;3.80;;;;;;;;;;5055934;28;20100;-72
2022/08/10 01:01:34;;;;;;;11.60;4.30;;;;;;;;;;5056389;28;20470;-72
2022/08/10 01:04:01;;;;;;;6.40;3.92;;;;;;;;;;5055600;28;20052;-72
2022/08/10 01:06:35;;;;;;;9.13;4.72;;;;;;;;;;5056128;28;20083;-72
2022/08/10 01:09:19;;;;;;;10.65;4.53;;;;;;;;;;5056148;28;20028;-72
2022/08/10 01:12:11;;;;;;;8.20;4.38;;;;;;;;;;5056016;28;20454;-72
2022/08/10 01:14:45;;;;;;;6.93;3.90;;;;;;;;;;5053365;28;20439;-72
2022/08/10 01:17:13;;;;;;;5.72;3.55;;;;;;;;;;5055309;28;20054;-72
2022/08/10 01:19:49;;;;;;;9.30;4.88;;;;;;;;;;5055563;28;20477;-71
2022/08/10 01:22:18;;;;;;;5.47;3.78;;;;;;;;;;5055289;28;20099;-71
2022/08/10 01:25:03;;;;;;;7.57;3.67;;;;;;;;;;5055814;28;20020;-72
2022/08/10 01:27:38;;;;;;;7.13;3.67;;;;;;;;;;5055752;28;20056;-72
2022/08/10 01:30:08;;;;;;;9.15;4.07;;;;;;;;;;5055136;28;20032;-72
2022/08/10 01:32:46;;;;;;;10.18;4.03;;;;;;;;;;5055387;28;20032;-72
2022/08/10 01:35:17;;;;;;;5.60;3.33;;;;;;;;;;5055663;28;20017;-72
2022/08/10 01:37:46;;;;;;;11.15;4.05;;;;;;;;;;5054872;28;20172;-72
2022/08/10 01:40:13;;;;;;;10.98;3.80;;;;;;;;;;5054916;28;20067;-71
2022/08/10 01:42:40;;;;;;;8.23;4.15;;;;;;;;;;5054874;28;20366;-72
2022/08/10 01:45:07;;;;;;;6.15;3.90;;;;;;;;;;5054808;28;20013;-72
2022/08/10 01:50:26;;;;;;;9.45;3.88;;;;;;;;;;5054765;28;20047;-72
2022/08/10 01:52:54;;;;;;;8.07;3.85;;;;;;;;;;5054948;28;20100;-72
2022/08/10 01:55:22;;;;;;;11.45;3.97;;;;;;;;;;5054172;28;20102;-72
2022/08/10 01:57:49;;;;;;;6.10;3.78;;;;;;;;;;5054803;28;20504;-71
2022/08/10 02:00:15;;;;;;;7.35;4.03;;;;;;;;;;5053940;28;20013;-72
2022/08/10 02:02:42;;;;;;;7.40;4.10;;;;;;;;;;5055585;28;20032;-72
2022/08/10 02:05:09;;;;;;;10.65;5.28;;;;;;;;;;5054510;28;20025;-71
2022/08/10 02:07:36;;;;;;;6.38;4.20;;;;;;;;;;5036496;28;20029;-72
2022/08/10 02:10:04;;;;;;;8.07;4.53;;;;;;;;;;5036511;28;20393;-72
2022/08/10 02:12:33;;;;;;;7.90;4.20;;;;;;;;;;5054326;28;20538;-71
2022/08/10 02:15:01;;;;;;;12.18;4.32;;;;;;;;;;5054276;28;20021;-71
2022/08/10 02:17:33;;;;;;;6.30;4.00;;;;;;;;;;5054422;28;20104;-72
2022/08/10 02:20:05;;;;;;;8.27;4.30;;;;;;;;;;5054211;28;20048;-71
2022/08/10 02:22:31;;;;;;;7.20;3.83;;;;;;;;;;5054711;28;20017;-72
2022/08/10 02:24:58;;;;;;;8.93;4.43;;;;;;;;;;5054109;28;20104;-71
2022/08/10 02:27:24;;;;;;;9.60;4.22;;;;;;;;;;5054356;28;20029;-72
2022/08/10 02:29:52;;;;;;;7.05;4.43;;;;;;;;;;5053992;28;20103;-71
2022/08/10 02:32:19;;;;;;;10.73;4.57;;;;;;;;;;5053975;28;20032;-71
2022/08/10 02:34:46;;;;;;;6.90;4.30;;;;;;;;;;5053897;28;20058;-72
2022/08/10 02:37:12;;;;;;;9.02;4.63;;;;;;;;;;5053811;28;20099;-71
2022/08/10 02:39:39;;;;;;;7.18;4.47;;;;;;;;;;5035933;28;20413;-72
2022/08/10 02:42:11;;;;;;;9.30;4.80;;;;;;;;;;5053810;28;20028;-71
2022/08/10 02:44:56;;;;;;;8.57;4.60;;;;;;;;;;5054317;28;20021;-72
2022/08/10 02:47:40;;;;;;;8.18;4.07;;;;;;;;;;5054244;28;20436;-71
2022/08/10 02:50:12;;;;;;;8.82;4.18;;;;;;;;;;5035772;28;20043;-71
2022/08/10 02:52:41;;;;;;;9.00;4.80;;;;;;;;;;5053599;28;20036;-72
2022/08/10 02:55:14;;;;;;;7.38;4.40;;;;;;;;;;5053251;28;20076;-71
2022/08/10 02:57:43;;;;;;;11.45;5.03;;;;;;;;;;5054054;28;20155;-71
2022/08/10 03:00:10;;;;;;;7.57;4.27;;;;;;;;;;5053490;28;20013;-71
2022/08/10 03:02:38;;;;;;;9.48;4.40;;;;;;;;;;5054038;28;20024;-71
2022/08/10 03:05:06;;;;;;;9.95;4.60;;;;;;;;;;5053742;28;20021;-72
2022/08/10 03:07:35;;;;;;;9.32;4.28;;;;;;;;;;5053389;28;20394;-71
2022/08/10 03:10:02;;;;;;;7.78;4.32;;;;;;;;;;5053352;28;20025;-72
2022/08/10 03:12:29;;;;;;;9.52;4.50;;;;;;;;;;5053041;28;20021;-72
2022/08/10 03:14:56;;;;;;;11.63;5.05;;;;;;;;;;5053597;28;20037;-72
2022/08/10 03:17:23;;;;;;;9.48;4.60;;;;;;;;;;5053210;28;20031;-71
2022/08/10 03:19:50;;;;;;;9.48;4.80;;;;;;;;;;5053738;28;20021;-71
2022/08/10 03:22:17;;;;;;;7.13;4.10;;;;;;;;;;5053732;28;20033;-72
2022/08/10 03:24:43;;;;;;;6.32;3.83;;;;;;;;;;5053173;28;20048;-71
2022/08/10 03:27:10;;;;;;;7.95;4.35;;;;;;;;;;5053166;28;20028;-71
2022/08/10 03:29:36;;;;;;;7.30;4.65;;;;;;;;;;5053363;28;20512;-71
2022/08/10 03:32:03;;;;;;;10.15;4.50;;;;;;;;;;5053077;28;20385;-71
2022/08/10 03:34:30;;;;;;;8.55;5.28;;;;;;;;;;5053342;28;20032;-71
2022/08/10 03:36:56;;;;;;;11.80;5.47;;;;;;;;;;5053271;28;20104;-72
2022/08/10 03:39:22;;;;;;;9.00;4.80;;;;;;;;;;5053027;28;20393;-71
2022/08/10 03:41:50;;;;;;;8.85;4.88;;;;;;;;;;5053270;28;20475;-71
2022/08/10 03:44:20;;;;;;;9.95;5.10;;;;;;;;;;5052979;28;20033;-71
2022/08/10 03:46:46;;;;;;;;;;;;;;;;;;5035535;28;20389;-72
2022/08/10 03:49:13;;;;;;;11.65;4.68;;;;;;;;;;5053518;28;20039;-72
2022/08/10 03:51:39;;;;;;;8.82;5.28;;;;;;;;;;5053459;28;20033;-72
2022/08/10 03:54:05;;;;;;;10.07;5.00;;;;;;;;;;5052706;28;20051;-71
2022/08/10 03:56:32;;;;;;;9.05;4.85;;;;;;;;;;5052848;28;20371;-72
2022/08/10 03:58:58;;;;;;;7.55;4.47;;;;;;;;;;5053180;28;20025;-72
2022/08/10 04:01:24;;;;;;;8.50;4.85;;;;;;;;;;5053361;28;20025;-72
2022/08/10 04:03:50;;;;;;;8.20;5.22;;;;;;;;;;5053363;28;20094;-72
2022/08/10 04:06:16;;;;;;;9.82;5.03;;;;;;;;;;5052778;28;20474;-71
2022/08/10 04:08:43;;;;;;;7.90;4.65;;;;;;;;;;5052784;28;20536;-71
2022/08/10 04:11:10;;;;;;;10.13;4.57;;;;;;;;;;5052989;28;20056;-71
2022/08/10 04:13:36;;;;;;;9.07;4.80;;;;;;;;;;5052759;28;20071;-72
2022/08/10 04:16:02;;;;;;;8.52;5.10;;;;;;;;;;5034849;28;20481;-71
2022/08/10 04:18:28;;;;;;;9.95;4.60;;;;;;;;;;5052596;28;20028;-72
2022/08/10 04:20:58;;;;;;;10.20;4.70;;;;;;;;;;5052934;28;20470;-71
2022/08/10 04:23:26;;;;;;;7.47;4.78;;;;;;;;;;5055125;28;20476;-71
2022/08/10 04:25:53;;;;;;;10.07;4.78;;;;;;;;;;5056314;28;20021;-71
2022/08/10 04:28:19;;;;;;;9.75;5.00;;;;;;;;;;5056342;28;20025;-71
2022/08/10 04:30:46;;;;;;;7.32;5.15;;;;;;;;;;5056293;28;20397;-71
2022/08/10 04:33:14;;;;;;;12.40;4.82;;;;;;;;;;5056526;28;20481;-71
2022/08/10 04:35:40;;;;;;;13.35;5.47;;;;;;;;;;5056520;28;20025;-71
2022/08/10 04:38:08;;;;;;;8.65;4.60;;;;;;;;;;5056355;28;20029;-71
2022/08/10 04:40:34;;;;;;;9.05;5.07;;;;;;;;;;5056409;28;20032;-71
2022/08/10 04:43:04;;;;;;;10.45;4.88;;;;;;;;;;5056048;28;20029;-71
2022/08/10 04:45:30;;;;;;;;;;;;;;;;;;5056398;28;20411;-71
2022/08/10 04:47:56;;;;;;;7.85;4.47;;;;;;;;;;5056534;28;19927;-72
2022/08/10 04:50:22;;;;;;;10.45;5.20;;;;;;;;;;5038052;28;20025;-71
2022/08/10 04:52:48;;;;;;;9.10;4.85;;;;;;;;;;5055918;28;20029;-72
2022/08/10 04:55:14;;;;;;;8.10;4.60;;;;;;;;;;5055458;28;20045;-72
2022/08/10 04:57:40;;;;;;;9.27;4.53;;;;;;;;;;5055982;28;20032;-71
2022/08/10 05:00:07;;;;;;;8.98;4.60;;;;;;;;;;5055710;28;20025;-72
2022/08/10 05:02:33;;;;;;;8.07;4.50;;;;;;;;;;5038414;28;20496;-71
2022/08/10 05:04:59;;;;;;;8.95;4.65;;;;;;;;;;5055689;28;20021;-72
2022/08/10 05:07:25;;;;;;;11.02;5.00;;;;;;;;;;5055909;28;20033;-71
2022/08/10 05:09:53;;;;;;;7.97;4.90;;;;;;;;;;5055575;28;20025;-72
2022/08/10 05:12:19;;;;;;;10.38;4.82;;;;;;;;;;5055799;28;20021;-72
2022/08/10 05:14:45;;;;;;;9.32;4.90;;;;;;;;;;5056019;28;20052;-71
2022/08/10 05:17:11;;;;;;;11.02;5.00;;;;;;;;;;5055338;28;20068;-71
2022/08/10 05:19:37;;;;;;;7.78;4.95;;;;;;;;;;5055359;28;20044;-71
2022/08/10 05:22:03;;;;;;;8.93;4.65;;;;;;;;;;5055283;28;20056;-71
2022/08/10 05:24:30;;;;;;;8.63;5.05;;;;;;;;;;5055591;28;20071;-71
2022/08/10 05:26:56;;;;;;;8.93;4.85;;;;;;;;;;5037330;28;20039;-71
2022/08/10 05:29:22;;;;;;;8.63;4.15;;;;;;;;;;5055211;28;20394;-72
2022/08/10 05:31:48;;;;;;;9.18;4.82;;;;;;;;;;5055144;28;20477;-72
2022/08/10 05:34:16;;;;;;;9.20;5.35;;;;;;;;;;5054211;28;20053;-71
2022/08/10 05:36:42;;;;;;;9.18;4.93;;;;;;;;;;5037104;28;20481;-71
2022/08/10 05:39:10;;;;;;;12.00;5.30;;;;;;;;;;5055002;28;20025;-72
2022/08/10 05:41:36;;;;;;;9.20;4.45;;;;;;;;;;5054961;28;20131;-72
2022/08/10 05:44:02;;;;;;;9.50;5.10;;;;;;;;;;5055180;28;20021;-72
2022/08/10 05:46:28;;;;;;;13.65;5.28;;;;;;;;;;5055158;28;20025;-71
2022/08/10 05:48:54;;;;;;;9.57;4.93;;;;;;;;;;5054793;28;20500;-72
2022/08/10 05:51:21;;;;;;;11.68;5.13;;;;;;;;;;5054755;28;20029;-71
2022/08/10 05:53:47;;;;;;;8.55;4.60;;;;;;;;;;5054554;28;20579;-71
2022/08/10 05:56:13;;;;;;;9.15;4.63;;;;;;;;;;5054672;28;20028;-71
2022/08/10 05:58:40;;;;;;;9.45;5.20;;;;;;;;;;5036657;28;20469;-71
2022/08/10 06:01:06;;;;;;;9.10;4.60;;;;;;;;;;5036658;28;20032;-72
2022/08/10 06:03:52;;;;;;;10.10;5.65;;;;;;;;;;5055062;28;20021;-71
2022/08/10 06:06:19;;;;;;;9.90;4.78;;;;;;;;;;5054841;28;20025;-72
2022/08/10 06:08:47;;;;;;;7.63;4.40;;;;;;;;;;5054442;28;20104;-71
2022/08/10 06:11:13;;;;;;;8.85;4.43;;;;;;;;;;5054397;28;20056;-71
2022/08/10 06:16:28;;;;;;;9.60;4.78;;;;;;;;;;5054925;28;20036;-72
2022/08/10 06:18:54;;;;;;;6.28;3.75;;;;;;;;;;5036319;28;20078;-71
2022/08/10 06:21:20;;;;;;;7.65;4.20;;;;;;;;;;5054244;28;20079;-72
2022/08/10 06:23:47;;;;;;;9.82;4.18;;;;;;;;;;5054479;28;20046;-71
2022/08/10 06:26:13;;;;;;;11.73;4.40;;;;;;;;;;5054119;28;20370;-72
2022/08/10 06:28:40;;;;;;;8.15;3.78;;;;;;;;;;5054053;28;20187;-72
2022/08/10 06:31:06;;;;;;;7.95;3.90;;;;;;;;;;5036118;28;20033;-71
2022/08/10 06:33:34;;;;;;;9.43;4.13;;;;;;;;;;5053978;28;20486;-72
2022/08/10 06:36:02;;;;;;;9.13;4.05;;;;;;;;;;5053970;28;20025;-71
2022/08/10 06:38:30;;;;;;;8.83;4.13;;;;;;;;;;5054470;28;20036;-72
2022/08/10 06:40:57;;;;;;;8.50;4.22;;;;;;;;;;5054177;28;20036;-72
2022/08/10 06:43:24;;;;;;;10.05;3.70;;;;;;;;;;5053795;28;20025;-72
2022/08/10 06:45:52;;;;;;;11.88;3.92;;;;;;;;;;5053616;28;20485;-71
2022/08/10 06:48:18;;;;;;;10.02;4.53;;;;;;;;;;5053793;28;20032;-73
2022/08/10 06:50:46;;;;;;;11.43;3.70;;;;;;;;;;5053584;28;20424;-73
2022/08/10 06:53:17;;;;;;;8.40;3.30;;;;;;;;;;5035533;28;20036;-72
2022/08/10 06:55:45;;;;;;;7.57;3.55;;;;;;;;;;5054165;28;20131;-72
2022/08/10 06:58:11;;;;;;;;;;;;;;;;;;5036006;28;20432;-72
2022/08/10 07:00:40;;;;;;;6.97;3.28;;;;;;;;;;5053454;28;19909;-71
2022/08/10 07:03:10;;;;;;;10.70;3.65;;;;;;;;;;5036146;28;20029;-72
2022/08/10 07:05:38;;;;;;;9.50;3.60;;;;;;;;;;5053413;28;20021;-73
2022/08/10 07:08:05;;;;;;;10.90;3.55;;;;;;;;;;5053395;28;20052;-72
2022/08/10 07:10:31;;;;;;;8.32;3.50;;;;;;;;;;5035430;28;20469;-71
2022/08/10 07:12:59;;;;;;;7.43;3.15;;;;;;;;;;5053285;28;20086;-71
2022/08/10 07:15:27;;;;;;;9.02;3.30;;;;;;;;;;5053593;28;20433;-71
2022/08/10 07:17:53;;;;;;;6.55;3.10;;;;;;;;;;5053497;28;20025;-71
2022/08/10 07:20:20;;;;;;;7.28;2.97;;;;;;;;;;5053201;28;20021;-71
2022/08/10 07:22:51;;;;;;;9.27;3.33;;;;;;;;;;5053792;28;20036;-71
2022/08/10 07:25:23;;;;;;;7.97;3.50;;;;;;;;;;5053723;28;20054;-71
2022/08/10 07:27:50;;;;;;;8.13;3.83;;;;;;;;;;5053133;28;20025;-71
2022/08/10 07:30:16;;;;;;;8.32;3.33;;;;;;;;;;5035238;28;20021;-71
2022/08/10 07:32:43;;;;;;;8.18;3.15;;;;;;;;;;5053132;28;20040;-71
2022/08/10 07:35:11;;;;;;;7.72;3.38;;;;;;;;;;5053163;28;20025;-71
2022/08/10 07:37:38;;;;;;;8.18;3.50;;;;;;;;;;5052934;28;20037;-71
2022/08/10 07:40:04;;;;;;;7.88;3.35;;;;;;;;;;5035206;28;20092;-70
2022/08/10 07:42:32;;;;;;;8.82;3.45;;;;;;;;;;5035977;28;20029;-71
2022/08/10 07:44:58;;;;;;;9.43;3.60;;;;;;;;;;5035138;28;20025;-70
2022/08/10 07:47:28;;;;;;;11.13;3.40;;;;;;;;;;5053528;28;20029;-71
2022/08/10 07:49:58;;;;;;;6.38;3.28;;;;;;;;;;5053499;28;20021;-71
2022/08/10 07:52:24;;;;;;;9.23;4.03;;;;;;;;;;5053814;28;20036;-70
2022/08/10 07:54:51;;;;;;;6.60;3.40;;;;;;;;;;5052790;28;20053;-71
2022/08/10 07:57:20;;;;;;;6.32;3.35;;;;;;;;;;5053312;28;20037;-71
2022/08/10 07:59:50;;;;;;;7.83;3.33;;;;;;;;;;5056874;28;20021;-71
2022/08/10 08:02:36;;;;;;;8.10;3.60;;;;;;;;;;5057153;28;20247;-71
2022/08/10 08:05:07;;;;;;;5.57;3.17;;;;;;;;;;5055816;28;20432;-71
2022/08/10 08:07:34;;;;;;;6.82;3.08;;;;;;;;;;5057093;28;20477;-71
2022/08/10 08:10:01;;;;;;;7.75;3.17;;;;;;;;;;5056730;28;20029;-70
2022/08/10 08:12:27;;;;;;;8.65;3.30;;;;;;;;;;5056678;28;20029;-71
2022/08/10 08:14:55;;;;;;;5.57;2.97;;;;;;;;;;5056589;28;20458;-71
2022/08/10 08:17:23;;;;;;;7.18;3.45;;;;;;;;;;5056745;28;20032;-71
2022/08/10 08:19:49;;;;;;;10.18;3.17;;;;;;;;;;5056837;28;20492;-71
2022/08/10 08:22:16;;;;;;;6.97;3.33;;;;;;;;;;5056455;28;20024;-71
2022/08/10 08:24:43;;;;;;;9.50;3.15;;;;;;;;;;5056432;28;20078;-71
2022/08/10 08:27:10;;;;;;;8.60;2.80;;;;;;;;;;5056396;28;20440;-71
2022/08/10 08:29:38;;;;;;;6.10;2.88;;;;;;;;;;5056323;28;20028;-71
2022/08/10 08:32:05;;;;;;;5.15;3.13;;;;;;;;;;5056321;28;20025;-71
2022/08/10 08:34:32;;;;;;;6.63;2.90;;;;;;;;;;5056780;28;20033;-71
2022/08/10 08:36:59;;;;;;;4.65;2.65;;;;;;;;;;5056346;28;20032;-71
2022/08/10 08:39:25;;;;;;;8.27;3.42;;;;;;;;;;5056679;28;20025;-71
2022/08/10 08:42:10;;;;;;;8.25;3.42;;;;;;;;;;5056373;28;20025;-71
2022/08/10 08:44:45;;;;;;;5.43;2.88;;;;;;;;;;5056327;28;20027;-71
2022/08/10 08:47:27;;;;;;;10.82;3.30;;;;;;;;;;5056320;28;20021;-71
2022/08/10 08:49:59;;;;;;;4.38;2.80;;;;;;;;;;5037853;28;20029;-71
2022/08/10 08:52:28;;;;;;;7.75;3.28;;;;;;;;;;5055955;28;20017;-71
2022/08/10 08:55:03;;;;;;;7.32;3.03;;;;;;;;;;5055690;28;20076;-71
2022/08/10 08:57:40;;;;;;;6.18;3.05;;;;;;;;;;5037825;28;20025;-71
2022/08/10 09:00:08;;;;;;;7.10;3.55;;;;;;;;;;5055951;28;20025;-71
2022/08/10 09:02:47;;;;;;;7.50;3.05;;;;;;;;;;5055758;28;20017;-71
2022/08/10 09:05:22;;;;;;;7.47;3.40;;;;;;;;;;5038307;28;20024;-71
2022/08/10 09:08:07;;;;;;;4.88;3.00;;;;;;;;;;5055630;28;20032;-71
2022/08/10 09:10:44;;;;;;;6.43;2.90;;;;;;;;;;5054891;28;20036;-71
2022/08/10 09:13:19;;;;;;;6.95;3.30;;;;;;;;;;5055837;28;20029;-71
2022/08/10 09:15:55;;;;;;;7.22;2.40;;;;;;;;;;5055849;28;20078;-71
2022/08/10 09:18:28;;;;;;;8.25;3.63;;;;;;;;;;5055614;28;20480;-71
2022/08/10 09:21:12;;;;;;;5.60;2.85;;;;;;;;;;5055724;28;20428;-71
2022/08/10 09:23:59;;;;;;;6.15;2.60;;;;;;;;;;5055884;28;20159;-71
2022/08/10 09:26:35;;;;;;;8.82;3.30;;;;;;;;;;5037124;28;20116;-71
2022/08/10 09:29:02;;;;;;;6.82;2.53;;;;;;;;;;5055240;28;20036;-71
2022/08/10 09:31:33;;;;;;;5.53;2.40;;;;;;;;;;5055493;28;20025;-71
2022/08/10 09:34:04;;;;;;;5.25;2.67;;;;;;;;;;5055779;28;20036;-71
2022/08/10 09:36:49;;;;;;;6.38;3.22;;;;;;;;;;5055404;28;20036;-71
2022/08/10 09:39:15;;;;;;;5.60;3.13;;;;;;;;;;5055601;28;20029;-71
2022/08/10 09:41:47;;;;;;;8.70;2.70;;;;;;;;;;5055010;28;20028;-71
2022/08/10 09:44:20;;;;;;;7.00;3.03;;;;;;;;;;5055231;28;20028;-71
2022/08/10 09:46:51;;;;;;;7.45;3.00;;;;;;;;;;5054986;28;20021;-71
2022/08/10 09:49:21;;;;;;;6.65;2.92;;;;;;;;;;5055413;28;20033;-71
2022/08/10 09:51:50;;;;;;;8.15;3.20;;;;;;;;;;5055114;28;20033;-71
2022/08/10 09:54:16;;;;;;;6.72;3.08;;;;;;;;;;5054596;28;20064;-71
2022/08/10 09:57:08;;;;;;;8.30;2.72;;;;;;;;;;5054729;28;20382;-71
2022/08/10 09:59:44;;;;;;;7.05;2.80;;;;;;;;;;5052746;28;20041;-71
2022/08/10 10:02:10;;;;;;;6.82;2.90;;;;;;;;;;5055142;28;20092;-71
2022/08/10 10:04:47;;;;;;;9.02;3.30;;;;;;;;;;5055091;28;20021;-71
2022/08/10 10:07:16;;;;;;;7.32;3.30;;;;;;;;;;5055115;28;20032;-71
2022/08/10 10:10:00;;;;;;;9.00;3.15;;;;;;;;;;5054481;28;20429;-71
2022/08/10 10:12:26;;;;;;;9.30;3.20;;;;;;;;;;5054422;28;20033;-71
2022/08/10 10:15:20;;;;;;;4.97;2.85;;;;;;;;;;5036497;28;20366;-71
2022/08/10 10:17:58;;;;;;;5.38;2.90;;;;;;;;;;5054854;28;20025;-71
2022/08/10 10:20:42;;;;;;;4.38;2.78;;;;;;;;;;5054166;28;20401;-71
2022/08/10 10:23:17;;;;;;;5.80;2.70;;;;;;;;;;5054494;28;20076;-71
2022/08/10 10:25:43;;;;;;;5.47;2.58;;;;;;;;;;5054190;28;20508;-71
2022/08/10 10:28:19;;;;;;;6.38;2.85;;;;;;;;;;5054376;28;20029;-71
2022/08/10 10:31:05;;;;;;;5.45;3.10;;;;;;;;;;5054400;28;20021;-71
2022/08/10 10:33:44;;;;;;;6.15;2.92;;;;;;;;;;5033187;28;20037;-71
2022/08/10 10:36:10;;;;;;;8.63;2.75;;;;;;;;;;5054304;28;20464;-71
2022/08/10 10:38:37;;;;;;;3.70;2.75;;;;;;;;;;5053813;28;20111;-71
2022/08/10 10:41:03;;;;;;;6.43;2.67;;;;;;;;;;5053881;28;20021;-71
2022/08/10 10:43:35;;;;;;;9.73;2.80;;;;;;;;;;5053819;28;20017;-71
2022/08/10 10:46:22;;;;;;;4.47;2.58;;;;;;;;;;5054082;28;20028;-71
2022/08/10 10:48:57;;;;;;;6.60;2.55;;;;;;;;;;5035823;28;20036;-71
2022/08/10 10:51:23;;;;;;;5.30;2.67;;;;;;;;;;5054213;28;20458;-71
2022/08/10 10:53:54;;;;;;;5.07;2.40;;;;;;;;;;5053518;28;20056;-71
2022/08/10 10:56:26;;;;;;;3.78;2.38;;;;;;;;;;5054206;28;20029;-71
2022/08/10 10:59:10;;;;;;;6.53;2.80;;;;;;;;;;5054160;28;20036;-71
2022/08/10 11:01:44;;;;;;;4.97;2.50;;;;;;;;;;5053350;28;20056;-71
2022/08/10 11:04:16;;;;;;;3.95;2.67;;;;;;;;;;5035984;28;20025;-71
2022/08/10 11:06:49;;;;;;;3.60;2.58;;;;;;;;;;5054028;28;20035;-71
2022/08/10 11:09:23;;;;;;;6.10;2.95;;;;;;;;;;5053741;28;20529;-71
2022/08/10 11:11:51;;;;;;;5.32;2.47;;;;;;;;;;5053705;28;20051;-71
2022/08/10 11:14:17;;;;;;;7.75;2.92;;;;;;;;;;5053293;28;20029;-71
2022/08/10 11:16:49;;;;;;;7.25;2.90;;;;;;;;;;5053612;28;20086;-71
2022/08/10 11:19:18;;;;;;;4.65;2.50;;;;;;;;;;5035445;28;20478;-71
2022/08/10 11:21:50;;;;;;;3.38;2.60;;;;;;;;;;5053281;28;20021;-71
2022/08/10 11:24:19;;;;;;;5.93;2.83;;;;;;;;;;5053505;28;20025;-71
2022/08/10 11:26:45;;;;;;;;;;;;;;;;;;5053649;28;20024;-71
2022/08/10 11:29:11;;;;;;;5.35;2.60;;;;;;;;;;5035240;28;20004;-71
2022/08/10 11:31:42;;;;;;;3.15;2.35;;;;;;;;;;5052752;28;20032;-71
2022/08/10 11:34:16;;;;;;;4.40;2.40;;;;;;;;;;5053199;28;20078;-70
2022/08/10 11:37:01;;;;;;;4.75;2.60;;;;;;;;;;5053375;28;20039;-71
2022/08/10 11:39:36;;;;;;;5.20;2.60;;;;;;;;;;5035193;28;20037;-71
2022/08/10 11:42:06;;;;;;;5.53;2.53;;;;;;;;;;5053062;28;20030;-71
2022/08/10 11:44:53;;;;;;;6.20;2.40;;;;;;;;;;5052987;28;20029;-71
2022/08/10 11:47:25;;;;;;;5.82;2.60;;;;;;;;;;5052986;28;20025;-70
2022/08/10 11:50:12;;;;;;;5.00;2.22;;;;;;;;;;5052931;28;20028;-71
2022/08/10 11:52:57;;;;;;;5.93;3.28;;;;;;;;;;5045843;28;20029;-71
2022/08/10 11:55:25;;;;;;;5.05;2.67;;;;;;;;;;5052535;28;20095;-71
2022/08/10 11:57:55;;;;;;;4.57;2.90;;;;;;;;;;5053120;28;20458;-71
2022/08/10 12:00:21;;;;;;;5.50;2.50;;;;;;;;;;5052774;28;20071;-71
2022/08/10 12:02:56;;;;;;;4.47;2.28;;;;;;;;;;5053121;28;20029;-71
2022/08/10 12:05:22;;;;;;;3.10;2.55;;;;;;;;;;5035465;28;20025;-71
2022/08/10 12:07:53;;;;;;;6.78;2.90;;;;;;;;;;5052777;28;20100;-71
2022/08/10 12:10:19;;;;;;;4.80;2.33;;;;;;;;;;5053276;28;20476;-71
2022/08/10 12:13:01;;;;;;;6.18;2.47;;;;;;;;;;5052736;28;20029;-71
2022/08/10 12:15:33;;;;;;;5.72;2.33;;;;;;;;;;5053321;28;20118;-71
2022/08/10 12:18:02;;;;;;;4.25;2.45;;;;;;;;;;5053247;28;20036;-71
2022/08/10 12:20:30;;;;;;;3.17;2.40;;;;;;;;;;5052949;28;20021;-71
2022/08/10 12:23:00;;;;;;;5.22;2.40;;;;;;;;;;5052664;28;20036;-71
2022/08/10 12:25:38;;;;;;;5.20;2.22;;;;;;;;;;5052937;28;20032;-71
2022/08/10 12:28:10;;;;;;;5.65;2.53;;;;;;;;;;5052928;28;20514;-71
2022/08/10 12:30:38;;;;;;;4.07;2.35;;;;;;;;;;5052834;28;20074;-71
2022/08/10 12:33:07;;;;;;;9.02;2.45;;;;;;;;;;5052531;28;20402;-71
2022/08/10 12:35:33;;;;;;;5.20;2.40;;;;;;;;;;5052556;28;20459;-71
2022/08/10 12:38:09;;;;;;;4.00;2.40;;;;;;;;;;5052425;28;20033;-71
2022/08/10 12:40:47;;;;;;;7.30;2.58;;;;;;;;;;5053068;28;20021;-71
2022/08/10 12:43:19;;;;;;;4.38;2.55;;;;;;;;;;5053405;28;20103;-71
2022/08/10 12:45:51;;;;;;;4.40;2.45;;;;;;;;;;5056294;28;20442;-71
2022/08/10 12:48:23;;;;;;;5.47;2.58;;;;;;;;;;5056272;28;20617;-71
2022/08/10 12:50:53;;;;;;;4.88;2.67;;;;;;;;;;5056262;28;20493;-71
2022/08/10 12:53:37;;;;;;;7.55;2.50;;;;;;;;;;5055696;28;20112;-71
2022/08/10 12:56:05;;;;;;;4.95;2.45;;;;;;;;;;5056182;28;20095;-71
2022/08/10 12:58:32;;;;;;;9.13;3.22;;;;;;;;;;5055764;28;20029;-71
2022/08/10 13:01:00;;;;;;;5.28;2.20;;;;;;;;;;5055682;28;20052;-70
2022/08/10 13:03:28;;;;;;;5.05;2.58;;;;;;;;;;5055783;28;20096;-71
2022/08/10 13:05:55;;;;;;;4.00;2.75;;;;;;;;;;5056857;28;20029;-71
2022/08/10 13:11:08;;;;;;;4.85;2.28;;;;;;;;;;5056174;28;20064;-71
2022/08/10 13:13:36;;;;;;;6.60;2.72;;;;;;;;;;5055638;28;20493;-71
2022/08/10 13:16:03;;;;;;;2.83;2.30;;;;;;;;;;5055718;28;20484;-71
2022/08/10 13:18:33;;;;;;;3.03;2.40;;;;;;;;;;5055694;28;20036;-71
2022/08/10 13:21:06;;;;;;;2.75;2.30;;;;;;;;;;5056010;28;20013;-71
2022/08/10 13:23:37;;;;;;;3.20;2.17;;;;;;;;;;5055988;28;20021;-71
2022/08/10 13:26:03;;;;;;;4.63;2.60;;;;;;;;;;5055714;28;20102;-71
2022/08/10 13:28:37;;;;;;;3.75;2.40;;;;;;;;;;5055348;28;20079;-71
2022/08/10 13:31:04;;;;;;;3.33;2.38;;;;;;;;;;5055849;28;20083;-71
2022/08/10 13:33:31;;;;;;;5.05;2.60;;;;;;;;;;5055475;28;20028;-71
2022/08/10 13:35:58;;;;;;;5.43;2.60;;;;;;;;;;5055696;28;20029;-71
2022/08/10 13:38:25;;;;;;;3.10;2.70;;;;;;;;;;5055031;28;20028;-71
2022/08/10 13:40:52;;;;;;;8.10;2.30;;;;;;;;;;5055044;28;20381;-71
2022/08/10 13:43:18;;;;;;;4.25;2.22;;;;;;;;;;5055009;28;20500;-71
2022/08/10 13:45:45;;;;;;;2.17;1.92;;;;;;;;;;5054923;28;20021;-71
2022/08/10 13:48:22;;;;;;;5.00;2.33;;;;;;;;;;5055497;28;20025;-71
2022/08/10 13:50:56;;;;;;;3.33;2.05;;;;;;;;;;5055447;28;20029;-71
2022/08/10 13:53:22;;;;;;;5.55;2.22;;;;;;;;;;5054900;28;20021;-71
2022/08/10 13:55:56;;;;;;;4.32;2.30;;;;;;;;;;5054307;28;20110;-71
2022/08/10 13:58:24;;;;;;;5.03;2.58;;;;;;;;;;5054700;28;20032;-71
2022/08/10 14:00:50;;;;;;;3.00;2.40;;;;;;;;;;5054561;28;20474;-71
2022/08/10 14:03:17;;;;;;;5.18;2.30;;;;;;;;;;5054876;28;20377;-71
2022/08/10 14:05:50;;;;;;;4.15;2.20;;;;;;;;;;5055080;28;20025;-71
2022/08/10 14:08:17;;;;;;;3.00;2.30;;;;;;;;;;5055044;28;20448;-72
2022/08/10 14:10:44;;;;;;;3.45;2.38;;;;;;;;;;5054445;28;20025;-71
2022/08/10 14:13:11;;;;;;;4.38;2.30;;;;;;;;;;5054442;28;20108;-72
2022/08/10 14:15:38;;;;;;;3.80;1.80;;;;;;;;;;5054334;28;20047;-69
2022/08/10 14:18:05;;;;;;;5.20;1.98;;;;;;;;;;5054424;28;20477;-77
2022/08/10 14:20:33;;;;;;;3.20;2.10;;;;;;;;;;5036394;28;20024;-77
2022/08/10 14:23:00;;;;;;;3.22;2.03;;;;;;;;;;5054226;28;20029;-72
2022/08/10 14:25:26;;;;;;;3.60;2.25;;;;;;;;;;5054182;28;20021;-73
2022/08/10 14:27:55;;;;;;;4.88;2.05;;;;;;;;;;5054652;28;20115;-72
2022/08/10 14:30:21;;;;;;;5.97;2.35;;;;;;;;;;5054657;28;20108;-73
2022/08/10 14:32:50;;;;;;;3.35;1.95;;;;;;;;;;5054054;28;20440;-78
2022/08/10 14:35:17;;;;;;;4.60;2.30;;;;;;;;;;5054325;28;20029;-76
2022/08/10 14:37:50;;;;;;;2.75;2.20;;;;;;;;;;5053898;28;20032;-73
2022/08/10 14:40:18;;;;;;;2.75;2.00;;;;;;;;;;5053955;28;20076;-71
2022/08/10 14:42:47;;;;;;;2.70;2.28;;;;;;;;;;5035994;28;20028;-71
2022/08/10 14:45:18;;;;;;;7.25;2.35;;;;;;;;;;5053907;28;20082;-72
2022/08/10 14:47:45;;;;;;;3.05;2.00;;;;;;;;;;5035705;28;20021;-72
2022/08/10 14:50:16;;;;;;;7.85;2.50;;;;;;;;;;5053776;28;20031;-71
2022/08/10 14:52:42;;;;;;;5.40;2.30;;;;;;;;;;5054007;28;20035;-71
2022/08/10 14:55:09;;;;;;;4.70;2.10;;;;;;;;;;5053352;28;20053;-71
2022/08/10 14:57:39;;;;;;;2.65;2.10;;;;;;;;;;5053554;28;20497;-71
2022/08/10 15:00:06;;;;;;;6.88;2.13;;;;;;;;;;5053481;28;20078;-71
2022/08/10 15:02:36;;;;;;;3.22;2.05;;;;;;;;;;5053538;28;20017;-71
2022/08/10 15:05:03;;;;;;;4.65;2.00;;;;;;;;;;5054272;28;20436;-71
2022/08/10 15:07:32;;;;;;;3.33;1.90;;;;;;;;;;5053642;28;20094;-71